createdAt,value
2023-05-09T00:00:00.868Z,4.08
2023-05-09T00:10:05.583Z,3.81
2023-05-09T00:20:10.251Z,3.55
2023-05-09T00:30:13.441Z,3.37
2023-05-09T00:40:17.599Z,3.35
2023-05-09T00:50:24.964Z,3.38
2023-05-09T01:00:28.861Z,3.37
2023-05-09T01:10:37.733Z,3.24
2023-05-09T01:20:44.161Z,3.09
2023-05-09T01:30:47.545Z,3.10
2023-05-09T01:40:54.700Z,3.27
2023-05-09T01:51:00.395Z,3.49
2023-05-09T02:01:04.208Z,3.74
2023-05-09T02:11:07.585Z,3.87
2023-05-09T02:21:11.566Z,3.86
2023-05-09T02:31:17.902Z,3.73
2023-05-09T02:41:22.216Z,3.72
2023-05-09T02:51:26.070Z,3.76
2023-05-09T03:01:30.001Z,3.77
2023-05-09T03:11:36.131Z,3.76
2023-05-09T03:21:39.921Z,3.72
2023-05-09T03:31:43.641Z,3.76
2023-05-09T03:41:48.348Z,4.36
2023-05-09T03:51:52.017Z,6.01
2023-05-09T04:01:55.828Z,7.96
2023-05-09T04:12:02.996Z,9.43
2023-05-09T04:22:06.685Z,10.44
2023-05-09T04:32:11.444Z,10.56
2023-05-09T04:42:15.198Z,10.55
2023-05-09T04:52:22.123Z,10.69
2023-05-09T05:02:26.081Z,10.95
2023-05-09T05:12:30.469Z,11.13
2023-05-09T05:22:38.260Z,11.70
2023-05-09T05:32:43.045Z,11.44
2023-05-09T05:52:50.509Z,11.19
2023-05-09T06:02:54.205Z,11.49
2023-05-09T06:12:57.968Z,11.75
2023-05-09T06:23:01.627Z,11.68
2023-05-09T06:33:05.638Z,11.83
2023-05-09T06:43:09.827Z,12.24
2023-05-09T06:53:13.638Z,12.70
2023-05-09T07:03:17.374Z,12.32
2023-05-09T07:13:21.296Z,12.06
2023-05-09T07:23:26.600Z,12.48
2023-05-09T07:33:29.778Z,12.84
2023-05-09T07:43:33.582Z,13.10
2023-05-09T07:53:37.236Z,13.15
2023-05-09T08:03:41.400Z,13.84
2023-05-09T08:25:40.300Z,13.66
2023-05-09T08:35:44.251Z,13.29
2023-05-09T08:45:51.188Z,13.59
2023-05-09T08:55:58.814Z,13.94
2023-05-09T09:06:03.018Z,14.04
2023-05-09T09:16:09.590Z,14.44
2023-05-09T09:26:13.794Z,14.54
2023-05-09T09:36:26.470Z,14.84
2023-05-09T09:46:31.547Z,14.81
2023-05-09T09:56:41.199Z,14.99
2023-05-09T10:06:52.560Z,14.98
2023-05-09T10:16:57.200Z,15.04
2023-05-09T10:27:06.532Z,15.14
2023-05-09T10:37:11.203Z,15.30
2023-05-09T10:47:15.865Z,15.49
2023-05-09T10:57:19.621Z,15.27
2023-05-09T11:07:27.757Z,15.39
2023-05-09T11:17:38.060Z,15.42
2023-05-09T11:27:41.986Z,15.14
2023-05-09T11:37:48.350Z,15.42
2023-05-09T11:47:53.664Z,15.67
2023-05-09T11:58:01.051Z,15.79
2023-05-09T12:08:04.993Z,15.85
2023-05-09T12:28:13.832Z,15.93
2023-05-09T12:38:22.033Z,15.90
2023-05-09T12:48:26.264Z,15.96
2023-05-09T12:58:30.126Z,15.90
2023-05-09T13:08:34.115Z,15.88
2023-05-09T13:18:37.946Z,15.80
2023-05-09T13:28:41.548Z,15.82
2023-05-09T13:38:45.727Z,15.81
2023-05-09T13:48:49.542Z,15.74
2023-05-09T13:58:53.220Z,15.86
2023-05-09T14:08:57.732Z,15.89
2023-05-09T14:19:01.661Z,15.69
2023-05-09T14:29:06.662Z,15.83
2023-05-09T14:39:10.457Z,15.82
2023-05-09T14:49:38.337Z,15.75
2023-05-09T14:59:42.445Z,15.67
2023-05-09T15:09:46.674Z,15.57
2023-05-09T15:19:50.569Z,15.41
2023-05-09T15:29:54.772Z,15.43
2023-05-09T15:40:03.775Z,15.43
2023-05-09T15:50:09.726Z,15.26
2023-05-09T16:00:15.969Z,15.13
2023-05-09T16:10:20.425Z,15.03
2023-05-09T16:20:24.581Z,14.95
2023-05-09T16:30:27.090Z,14.87
2023-05-09T16:40:31.019Z,14.70
2023-05-09T16:50:35.524Z,14.51
2023-05-09T17:00:39.163Z,14.31
2023-05-09T17:11:08.264Z,14.15
2023-05-09T17:21:12.731Z,13.99
2023-05-09T17:31:16.486Z,13.84
2023-05-09T17:41:20.355Z,13.65
2023-05-09T17:51:23.996Z,13.43
2023-05-09T18:01:27.640Z,13.17
2023-05-09T18:11:31.423Z,12.92
2023-05-09T18:21:34.939Z,12.65
2023-05-09T18:31:42.407Z,12.35
2023-05-09T18:41:55.488Z,12.08
2023-05-09T18:51:59.645Z,11.83
2023-05-09T19:02:03.749Z,11.58
2023-05-09T19:12:09.098Z,11.36
2023-05-09T19:22:16.216Z,11.13
2023-05-09T19:32:19.410Z,10.91
2023-05-09T19:42:22.672Z,10.67
2023-05-09T19:52:26.096Z,10.43
2023-05-09T20:02:33.674Z,10.25
2023-05-09T20:12:37.481Z,10.10
2023-05-09T20:22:41.196Z,10.00
2023-05-09T20:32:45.276Z,9.86
2023-05-09T20:42:49.369Z,9.78
2023-05-09T20:52:53.615Z,9.75
2023-05-09T21:02:58.866Z,9.68
2023-05-09T21:13:03.963Z,9.58
2023-05-09T21:23:11.404Z,9.49
2023-05-09T21:33:15.090Z,9.53
2023-05-09T21:43:19.656Z,9.57
2023-05-09T21:53:23.359Z,9.53
2023-05-09T22:03:28.215Z,9.52
2023-05-09T22:14:00.422Z,9.51
2023-05-09T22:24:04.848Z,9.49
2023-05-09T22:34:08.483Z,9.42
2023-05-09T22:44:12.159Z,9.34
2023-05-09T22:54:21.386Z,9.28
2023-05-09T23:04:25.171Z,9.22
2023-05-09T23:14:29.032Z,9.17
2023-05-09T23:24:33.595Z,9.08
2023-05-09T23:34:37.345Z,8.99
2023-05-09T23:44:41.660Z,8.94
2023-05-09T23:54:46.004Z,8.84
